Orlando, Florida
Traffic Map
Current Weather Conditions
Orlando, Florida
Clear
Clear
84°
Feels Like: 84°
Wind Chill: 84° Ceiling: Unl
Heat Index: 84° Visibility: 10mi
Dew Point: 55° Wind: 7mph
Humidity: 37% Direction: 300° (WNW)
Pressure: 29.87in Gusts: 0mph
Raw Report DataKORL 232253Z 30006KT 10SM CLR 29/13 A2987 RMK AO2 SLP118 T02890128
Traffic Incident Summary
Active as of:
Severity:
Category:
InformationThere was an issue retrieving the traffic information for this location. Please try a different location or try again shortly.
Advertisements
At Last! Intellicast now available for iPhone and Android